sensor_id;sensor_type;location;lat;lon;timestamp;pressure;altitude;pressure_sealevel;temperature;humidity
12868;BME280;33517;49.866;8.320;2022-09-09T00:00:20;99968.69;;;17.09;79.17
12868;BME280;33517;49.866;8.320;2022-09-09T00:03:16;99963.88;;;16.99;80.02
12868;BME280;33517;49.866;8.320;2022-09-09T00:06:11;99960.28;;;16.87;79.83
12868;BME280;33517;49.866;8.320;2022-09-09T00:09:11;99959.94;;;16.77;80.44
12868;BME280;33517;49.866;8.320;2022-09-09T00:12:09;99956.94;;;16.67;80.74
12868;BME280;33517;49.866;8.320;2022-09-09T00:15:06;99954.94;;;16.63;80.82
12868;BME280;33517;49.866;8.320;2022-09-09T00:18:03;99951.09;;;16.58;80.89
12868;BME280;33517;49.866;8.320;2022-09-09T00:21:04;99964.38;;;16.58;81.53
12868;BME280;33517;49.866;8.320;2022-09-09T00:23:58;99959.28;;;16.57;82.15
12868;BME280;33517;49.866;8.320;2022-09-09T00:26:55;99961.72;;;16.58;82.44
12868;BME280;33517;49.866;8.320;2022-09-09T00:29:53;99956.63;;;16.57;82.01
12868;BME280;33517;49.866;8.320;2022-09-09T00:32:47;99962.72;;;16.57;82.92
12868;BME280;33517;49.866;8.320;2022-09-09T00:35:41;99952.53;;;16.54;83.01
12868;BME280;33517;49.866;8.320;2022-09-09T00:38:38;99953.59;;;16.47;82.86
12868;BME280;33517;49.866;8.320;2022-09-09T00:41:42;99949.72;;;16.43;83.78
12868;BME280;33517;49.866;8.320;2022-09-09T00:44:38;99953.22;;;16.37;84.32
12868;BME280;33517;49.866;8.320;2022-09-09T00:47:39;99955.13;;;16.30;84.45
12868;BME280;33517;49.866;8.320;2022-09-09T00:50:42;99954.13;;;16.24;86.45
12868;BME280;33517;49.866;8.320;2022-09-09T00:53:51;99950.88;;;16.22;85.90
12868;BME280;33517;49.866;8.320;2022-09-09T00:56:55;99951.88;;;16.21;86.18
12868;BME280;33517;49.866;8.320;2022-09-09T00:59:57;99947.41;;;16.22;86.89
12868;BME280;33517;49.866;8.320;2022-09-09T01:03:22;99947.78;;;16.25;86.62
12868;BME280;33517;49.866;8.320;2022-09-09T01:06:22;99941.47;;;16.26;86.10
12868;BME280;33517;49.866;8.320;2022-09-09T01:09:22;99938.41;;;16.23;85.75
12868;BME280;33517;49.866;8.320;2022-09-09T01:12:24;99932.69;;;16.19;85.37
12868;BME280;33517;49.866;8.320;2022-09-09T01:15:22;99942.09;;;16.15;85.34
12868;BME280;33517;49.866;8.320;2022-09-09T01:18:17;99937.22;;;16.12;85.34
12868;BME280;33517;49.866;8.320;2022-09-09T01:21:18;99939.50;;;16.09;87.07
12868;BME280;33517;49.866;8.320;2022-09-09T01:24:22;99931.53;;;16.09;86.42
12868;BME280;33517;49.866;8.320;2022-09-09T01:27:19;99943.38;;;16.06;86.88
12868;BME280;33517;49.866;8.320;2022-09-09T01:30:14;99940.72;;;16.06;86.71
12868;BME280;33517;49.866;8.320;2022-09-09T01:33:10;99938.91;;;16.07;86.52
12868;BME280;33517;49.866;8.320;2022-09-09T01:36:06;99938.28;;;16.05;87.28
12868;BME280;33517;49.866;8.320;2022-09-09T01:39:00;99935.63;;;16.05;87.69
12868;BME280;33517;49.866;8.320;2022-09-09T01:41:52;99943.38;;;16.06;88.27
12868;BME280;33517;49.866;8.320;2022-09-09T01:44:46;99929.09;;;16.07;87.45
12868;BME280;33517;49.866;8.320;2022-09-09T01:47:37;99931.53;;;16.09;87.24
12868;BME280;33517;49.866;8.320;2022-09-09T01:50:29;99933.97;;;16.10;87.13
12868;BME280;33517;49.866;8.320;2022-09-09T01:53:22;99930.09;;;16.13;86.75
12868;BME280;33517;49.866;8.320;2022-09-09T01:56:22;99928.25;;;16.13;88.38
12868;BME280;33517;49.866;8.320;2022-09-09T01:59:30;99937.22;;;16.19;89.12
12868;BME280;33517;49.866;8.320;2022-09-09T02:02:32;99944.19;;;16.13;90.07
12868;BME280;33517;49.866;8.320;2022-09-09T02:05:32;99948.47;;;16.14;90.21
12868;BME280;33517;49.866;8.320;2022-09-09T02:08:33;99949.41;;;16.26;89.42
12868;BME280;33517;49.866;8.320;2022-09-09T02:11:29;99939.53;;;16.40;88.08
12868;BME280;33517;49.866;8.320;2022-09-09T02:14:23;99932.16;;;16.48;87.22
12868;BME280;33517;49.866;8.320;2022-09-09T02:17:20;99933.94;;;16.54;87.12
12868;BME280;33517;49.866;8.320;2022-09-09T02:20:16;99943.94;;;16.59;86.53
12868;BME280;33517;49.866;8.320;2022-09-09T02:23:10;99946.38;;;16.61;86.56
12868;BME280;33517;49.866;8.320;2022-09-09T02:26:03;99944.72;;;16.59;86.44
12868;BME280;33517;49.866;8.320;2022-09-09T02:28:57;99943.13;;;16.58;86.50
12868;BME280;33517;49.866;8.320;2022-09-09T02:31:51;99948.25;;;16.53;86.45
12868;BME280;33517;49.866;8.320;2022-09-09T02:34:47;99938.44;;;16.54;86.17
12868;BME280;33517;49.866;8.320;2022-09-09T02:37:42;99944.56;;;16.54;86.46
12868;BME280;33517;49.866;8.320;2022-09-09T02:40:36;99942.72;;;16.55;86.41
12868;BME280;33517;49.866;8.320;2022-09-09T02:43:31;99938.66;;;16.52;86.27
12868;BME280;33517;49.866;8.320;2022-09-09T02:46:32;99946.84;;;16.51;86.28
12868;BME280;33517;49.866;8.320;2022-09-09T02:49:35;99945.19;;;16.50;86.09
12868;BME280;33517;49.866;8.320;2022-09-09T02:52:38;99945.84;;;16.45;86.32
12868;BME280;33517;49.866;8.320;2022-09-09T02:55:38;99940.31;;;16.40;87.39
12868;BME280;33517;49.866;8.320;2022-09-09T02:58:31;99931.56;;;16.40;86.73
12868;BME280;33517;49.866;8.320;2022-09-09T03:01:23;99944.25;;;16.38;86.42
12868;BME280;33517;49.866;8.320;2022-09-09T03:04:15;99944.44;;;16.36;86.21
12868;BME280;33517;49.866;8.320;2022-09-09T03:07:07;99936.09;;;16.33;86.79
12868;BME280;33517;49.866;8.320;2022-09-09T03:10:00;99937.34;;;16.30;87.29
12868;BME280;33517;49.866;8.320;2022-09-09T03:12:53;99937.97;;;16.26;86.98
12868;BME280;33517;49.866;8.320;2022-09-09T03:15:47;99936.16;;;16.20;87.39
12868;BME280;33517;49.866;8.320;2022-09-09T03:18:39;99939.44;;;16.15;87.13
12868;BME280;33517;49.866;8.320;2022-09-09T03:21:31;99938.88;;;16.13;87.09
12868;BME280;33517;49.866;8.320;2022-09-09T03:24:22;99935.63;;;16.11;87.43
12868;BME280;33517;49.866;8.320;2022-09-09T03:27:14;99943.13;;;16.21;88.84
12868;BME280;33517;49.866;8.320;2022-09-09T03:30:08;99949.41;;;16.26;89.06
12868;BME280;33517;49.866;8.320;2022-09-09T03:33:01;99947.91;;;16.37;88.69
12868;BME280;33517;49.866;8.320;2022-09-09T03:35:54;99952.38;;;16.43;88.37
12868;BME280;33517;49.866;8.320;2022-09-09T03:38:46;99952.59;;;16.41;88.71
12868;BME280;33517;49.866;8.320;2022-09-09T03:41:38;99952.16;;;16.44;88.02
12868;BME280;33517;49.866;8.320;2022-09-09T03:44:30;99948.28;;;16.47;87.82
12868;BME280;33517;49.866;8.320;2022-09-09T03:47:23;99943.59;;;16.49;87.78
12868;BME280;33517;49.866;8.320;2022-09-09T03:50:15;99947.66;;;16.51;87.87
12868;BME280;33517;49.866;8.320;2022-09-09T03:53:08;99946.25;;;16.49;87.22
12868;BME280;33517;49.866;8.320;2022-09-09T03:56:00;99948.91;;;16.49;87.77
12868;BME280;33517;49.866;8.320;2022-09-09T03:58:52;99944.34;;;16.56;87.20
12868;BME280;33517;49.866;8.320;2022-09-09T04:01:44;99938.03;;;16.57;87.30
12868;BME280;33517;49.866;8.320;2022-09-09T04:04:38;99931.25;;;16.61;87.78
12868;BME280;33517;49.866;8.320;2022-09-09T04:07:31;99920.34;;;16.69;87.19
12868;BME280;33517;49.866;8.320;2022-09-09T04:10:22;99917.00;;;16.80;87.11
12868;BME280;33517;49.866;8.320;2022-09-09T04:13:15;99928.97;;;16.89;86.31
12868;BME280;33517;49.866;8.320;2022-09-09T04:16:09;99934.28;;;16.89;85.78
12868;BME280;33517;49.866;8.320;2022-09-09T04:19:02;99923.88;;;16.88;86.67
12868;BME280;33517;49.866;8.320;2022-09-09T04:21:56;99932.94;;;16.80;86.72
12868;BME280;33517;49.866;8.320;2022-09-09T04:24:47;99935.41;;;16.75;86.51
12868;BME280;33517;49.866;8.320;2022-09-09T04:27:40;99936.13;;;16.64;87.38
12868;BME280;33517;49.866;8.320;2022-09-09T04:30:33;99931.50;;;16.53;87.98
12868;BME280;33517;49.866;8.320;2022-09-09T04:33:26;99928.25;;;16.44;88.42
12868;BME280;33517;49.866;8.320;2022-09-09T04:36:18;99928.50;;;16.36;88.76
12868;BME280;33517;49.866;8.320;2022-09-09T04:39:12;99927.34;;;16.26;89.83
12868;BME280;33517;49.866;8.320;2022-09-09T04:42:04;99922.50;;;16.23;89.59
12868;BME280;33517;49.866;8.320;2022-09-09T04:44:55;99933.09;;;16.23;89.23
12868;BME280;33517;49.866;8.320;2022-09-09T04:47:47;99940.28;;;16.16;89.60
12868;BME280;33517;49.866;8.320;2022-09-09T04:50:39;99937.00;;;16.14;90.43
12868;BME280;33517;49.866;8.320;2022-09-09T04:53:32;99944.97;;;16.14;90.28
12868;BME280;33517;49.866;8.320;2022-09-09T04:56:25;99945.41;;;16.11;90.58
12868;BME280;33517;49.866;8.320;2022-09-09T04:59:18;99953.00;;;16.07;90.74
12868;BME280;33517;49.866;8.320;2022-09-09T05:02:10;99956.88;;;16.05;90.65
12868;BME280;33517;49.866;8.320;2022-09-09T05:05:03;99961.56;;;16.09;90.66
12868;BME280;33517;49.866;8.320;2022-09-09T05:08:00;99969.09;;;16.12;90.31
12868;BME280;33517;49.866;8.320;2022-09-09T05:10:52;99971.13;;;16.17;90.60
12868;BME280;33517;49.866;8.320;2022-09-09T05:13:46;99972.09;;;16.22;89.86
12868;BME280;33517;49.866;8.320;2022-09-09T05:16:38;99980.06;;;16.22;90.15
12868;BME280;33517;49.866;8.320;2022-09-09T05:19:30;99979.25;;;16.22;90.14
12868;BME280;33517;49.866;8.320;2022-09-09T05:22:22;99989.06;;;16.21;90.30
12868;BME280;33517;49.866;8.320;2022-09-09T05:25:14;99977.81;;;16.19;90.05
12868;BME280;33517;49.866;8.320;2022-09-09T05:28:06;99980.53;;;16.13;90.48
12868;BME280;33517;49.866;8.320;2022-09-09T05:31:01;99983.81;;;16.08;91.13
12868;BME280;33517;49.866;8.320;2022-09-09T05:33:55;99984.03;;;16.07;91.19
12868;BME280;33517;49.866;8.320;2022-09-09T05:36:47;99985.84;;;16.13;91.20
12868;BME280;33517;49.866;8.320;2022-09-09T05:39:39;99981.53;;;16.18;90.83
12868;BME280;33517;49.866;8.320;2022-09-09T05:42:31;99983.56;;;16.23;90.54
12868;BME280;33517;49.866;8.320;2022-09-09T05:45:23;99989.78;;;16.41;89.94
12868;BME280;33517;49.866;8.320;2022-09-09T05:48:17;99990.63;;;16.73;88.65
12868;BME280;33517;49.866;8.320;2022-09-09T05:51:11;99990.75;;;16.85;87.98
12868;BME280;33517;49.866;8.320;2022-09-09T05:54:03;99998.34;;;17.06;86.99
12868;BME280;33517;49.866;8.320;2022-09-09T05:56:55;99994.94;;;17.23;85.63
12868;BME280;33517;49.866;8.320;2022-09-09T05:59:47;100001.88;;;17.24;86.11
12868;BME280;33517;49.866;8.320;2022-09-09T06:02:40;100001.22;;;17.29;85.31
12868;BME280;33517;49.866;8.320;2022-09-09T06:05:33;100001.81;;;17.31;85.46
12868;BME280;33517;49.866;8.320;2022-09-09T06:08:25;100006.28;;;17.37;84.69
12868;BME280;33517;49.866;8.320;2022-09-09T06:11:19;100001.06;;;17.24;85.30
12868;BME280;33517;49.866;8.320;2022-09-09T06:14:11;100003.06;;;17.28;85.51
12868;BME280;33517;49.866;8.320;2022-09-09T06:17:03;100010.78;;;17.36;85.37
12868;BME280;33517;49.866;8.320;2022-09-09T06:19:55;100004.34;;;17.51;84.50
12868;BME280;33517;49.866;8.320;2022-09-09T06:22:48;100000.94;;;17.62;84.08
12868;BME280;33517;49.866;8.320;2022-09-09T06:25:40;100011.09;;;17.71;83.89
12868;BME280;33517;49.866;8.320;2022-09-09T06:28:32;100005.53;;;17.91;82.30
12868;BME280;33517;49.866;8.320;2022-09-09T06:31:25;100003.91;;;17.90;82.17
12868;BME280;33517;49.866;8.320;2022-09-09T06:34:20;100001.81;;;18.46;80.96
12868;BME280;33517;49.866;8.320;2022-09-09T06:37:12;99994.41;;;19.01;78.23
12868;BME280;33517;49.866;8.320;2022-09-09T06:40:07;99990.94;;;18.89;77.76
12868;BME280;33517;49.866;8.320;2022-09-09T06:42:59;99985.38;;;19.02;77.98
12868;BME280;33517;49.866;8.320;2022-09-09T06:45:53;100003.72;;;19.21;76.87
12868;BME280;33517;49.866;8.320;2022-09-09T06:48:46;100008.47;;;18.67;77.76
12868;BME280;33517;49.866;8.320;2022-09-09T06:51:38;100011.56;;;18.34;79.09
12868;BME280;33517;49.866;8.320;2022-09-09T06:54:33;100003.97;;;18.19;80.23
12868;BME280;33517;49.866;8.320;2022-09-09T06:57:28;100011.59;;;18.16;80.93
12868;BME280;33517;49.866;8.320;2022-09-09T07:00:20;100011.72;;;18.21;81.01
12868;BME280;33517;49.866;8.320;2022-09-09T07:03:12;100013.88;;;18.12;81.37
12868;BME280;33517;49.866;8.320;2022-09-09T07:06:04;100024.53;;;18.30;81.65
12868;BME280;33517;49.866;8.320;2022-09-09T07:08:57;100007.91;;;19.17;79.35
12868;BME280;33517;49.866;8.320;2022-09-09T07:11:51;100006.22;;;19.35;76.68
12868;BME280;33517;49.866;8.320;2022-09-09T07:14:45;100010.78;;;19.27;77.48
12868;BME280;33517;49.866;8.320;2022-09-09T07:17:37;100015.41;;;18.97;77.70
12868;BME280;33517;49.866;8.320;2022-09-09T07:20:29;100011.47;;;19.00;78.35
12868;BME280;33517;49.866;8.320;2022-09-09T07:23:20;100018.19;;;19.02;78.03
12868;BME280;33517;49.866;8.320;2022-09-09T07:26:14;100024.59;;;19.13;77.92
12868;BME280;33517;49.866;8.320;2022-09-09T07:29:06;100027.50;;;19.23;77.23
12868;BME280;33517;49.866;8.320;2022-09-09T07:31:59;100029.13;;;18.71;79.43
12868;BME280;33517;49.866;8.320;2022-09-09T07:34:53;100038.03;;;18.65;79.96
12868;BME280;33517;49.866;8.320;2022-09-09T07:37:44;100039.25;;;18.81;79.77
12868;BME280;33517;49.866;8.320;2022-09-09T07:40:36;100044.00;;;18.79;79.92
12868;BME280;33517;49.866;8.320;2022-09-09T07:43:30;100034.38;;;18.89;79.72
12868;BME280;33517;49.866;8.320;2022-09-09T07:46:23;100031.75;;;19.54;77.43
12868;BME280;33517;49.866;8.320;2022-09-09T07:49:16;100043.41;;;20.10;74.29
12868;BME280;33517;49.866;8.320;2022-09-09T07:52:09;100038.84;;;20.62;71.18
12868;BME280;33517;49.866;8.320;2022-09-09T07:55:01;100046.78;;;20.57;70.89
12868;BME280;33517;49.866;8.320;2022-09-09T07:57:55;100040.16;;;21.21;68.69
12868;BME280;33517;49.866;8.320;2022-09-09T08:00:47;100039.69;;;21.07;68.65
12868;BME280;33517;49.866;8.320;2022-09-09T08:03:40;100042.94;;;21.43;67.50
12868;BME280;33517;49.866;8.320;2022-09-09T08:06:35;100043.63;;;21.88;66.00
12868;BME280;33517;49.866;8.320;2022-09-09T08:09:28;100046.31;;;22.10;65.21
12868;BME280;33517;49.866;8.320;2022-09-09T08:12:20;100049.44;;;22.45;63.90
12868;BME280;33517;49.866;8.320;2022-09-09T08:15:12;100057.28;;;21.86;64.52
12868;BME280;33517;49.866;8.320;2022-09-09T08:18:03;100061.28;;;22.06;63.61
12868;BME280;33517;49.866;8.320;2022-09-09T08:20:56;100054.63;;;21.20;66.01
12868;BME280;33517;49.866;8.320;2022-09-09T08:23:51;100055.72;;;21.07;66.52
12868;BME280;33517;49.866;8.320;2022-09-09T08:26:45;100058.84;;;21.16;66.93
12868;BME280;33517;49.866;8.320;2022-09-09T08:29:37;100064.25;;;21.04;67.87
12868;BME280;33517;49.866;8.320;2022-09-09T08:32:29;100058.03;;;23.53;61.53
12868;BME280;33517;49.866;8.320;2022-09-09T08:35:21;100052.94;;;26.01;52.89
12868;BME280;33517;49.866;8.320;2022-09-09T08:38:13;100057.03;;;24.83;53.75
12868;BME280;33517;49.866;8.320;2022-09-09T08:44:27;100047.84;;;24.02;56.49
12868;BME280;33517;49.866;8.320;2022-09-09T08:47:30;100030.97;;;23.65;56.58
12868;BME280;33517;49.866;8.320;2022-09-09T08:50:27;100051.91;;;23.00;58.18
12868;BME280;33517;49.866;8.320;2022-09-09T08:53:22;100046.25;;;22.26;60.47
12868;BME280;33517;49.866;8.320;2022-09-09T08:56:18;100054.91;;;21.90;62.17
12868;BME280;33517;49.866;8.320;2022-09-09T08:59:16;100047.00;;;22.00;62.16
12868;BME280;33517;49.866;8.320;2022-09-09T09:02:15;100036.91;;;22.29;61.21
12868;BME280;33517;49.866;8.320;2022-09-09T09:05:18;100043.00;;;23.26;58.87
12868;BME280;33517;49.866;8.320;2022-09-09T09:08:21;100054.50;;;22.63;60.22
12868;BME280;33517;49.866;8.320;2022-09-09T09:11:18;100052.91;;;22.45;60.62
12868;BME280;33517;49.866;8.320;2022-09-09T09:14:14;100043.63;;;25.53;54.95
12868;BME280;33517;49.866;8.320;2022-09-09T09:17:11;100041.66;;;27.93;48.27
12868;BME280;33517;49.866;8.320;2022-09-09T09:20:10;100057.25;;;26.76;47.61
12868;BME280;33517;49.866;8.320;2022-09-09T09:23:05;100065.34;;;26.81;47.26
12868;BME280;33517;49.866;8.320;2022-09-09T09:26:00;100050.69;;;29.42;44.15
12868;BME280;33517;49.866;8.320;2022-09-09T09:28:55;100067.47;;;33.12;38.61
12868;BME280;33517;49.866;8.320;2022-09-09T09:31:52;100065.13;;;34.20;33.55
12868;BME280;33517;49.866;8.320;2022-09-09T09:34:49;100067.97;;;35.02;33.26
12868;BME280;33517;49.866;8.320;2022-09-09T09:37:41;100072.19;;;34.91;32.46
12868;BME280;33517;49.866;8.320;2022-09-09T09:40:34;100059.53;;;33.62;33.16
12868;BME280;33517;49.866;8.320;2022-09-09T09:43:28;100055.59;;;32.82;34.67
12868;BME280;33517;49.866;8.320;2022-09-09T09:46:22;100051.09;;;32.95;33.45
12868;BME280;33517;49.866;8.320;2022-09-09T09:49:15;100050.34;;;32.29;32.62
12868;BME280;33517;49.866;8.320;2022-09-09T09:52:14;100034.81;;;31.82;34.02
12868;BME280;33517;49.866;8.320;2022-09-09T09:55:12;100044.84;;;32.69;33.80
12868;BME280;33517;49.866;8.320;2022-09-09T09:58:06;100037.81;;;34.41;30.09
12868;BME280;33517;49.866;8.320;2022-09-09T10:01:22;100034.75;;;33.20;31.38
12868;BME280;33517;49.866;8.320;2022-09-09T10:04:17;100035.56;;;33.12;31.37
12868;BME280;33517;49.866;8.320;2022-09-09T10:07:11;100024.06;;;32.16;31.92
12868;BME280;33517;49.866;8.320;2022-09-09T10:10:04;100024.50;;;29.51;36.14
12868;BME280;33517;49.866;8.320;2022-09-09T10:13:02;100021.88;;;27.11;40.22
12868;BME280;33517;49.866;8.320;2022-09-09T10:16:06;100031.94;;;26.57;42.54
12868;BME280;33517;49.866;8.320;2022-09-09T10:19:03;100024.97;;;25.77;44.30
12868;BME280;33517;49.866;8.320;2022-09-09T10:22:05;100027.91;;;24.60;46.69
12868;BME280;33517;49.866;8.320;2022-09-09T10:25:28;100019.09;;;28.26;41.20
12868;BME280;33517;49.866;8.320;2022-09-09T10:28:34;100016.16;;;28.65;38.92
12868;BME280;33517;49.866;8.320;2022-09-09T10:31:36;100017.31;;;26.68;41.94
12868;BME280;33517;49.866;8.320;2022-09-09T10:34:47;100004.28;;;25.47;44.67
12868;BME280;33517;49.866;8.320;2022-09-09T10:38:04;100001.00;;;24.70;46.68
12868;BME280;33517;49.866;8.320;2022-09-09T10:41:11;100004.13;;;24.27;46.53
12868;BME280;33517;49.866;8.320;2022-09-09T10:44:32;99994.13;;;23.60;48.03
12868;BME280;33517;49.866;8.320;2022-09-09T10:47:43;100002.75;;;24.14;48.05
12868;BME280;33517;49.866;8.320;2022-09-09T10:50:50;100007.53;;;25.44;45.90
12868;BME280;33517;49.866;8.320;2022-09-09T10:53:53;100007.88;;;29.26;39.91
12868;BME280;33517;49.866;8.320;2022-09-09T10:56:52;100018.00;;;30.47;37.21
12868;BME280;33517;49.866;8.320;2022-09-09T10:59:48;100015.34;;;31.58;34.31
12868;BME280;33517;49.866;8.320;2022-09-09T11:02:43;100020.16;;;33.16;31.94
12868;BME280;33517;49.866;8.320;2022-09-09T11:05:39;100017.53;;;33.83;30.43
12868;BME280;33517;49.866;8.320;2022-09-09T11:08:36;100012.22;;;34.45;29.91
12868;BME280;33517;49.866;8.320;2022-09-09T11:11:33;100013.69;;;34.22;30.41
12868;BME280;33517;49.866;8.320;2022-09-09T11:14:31;100006.94;;;35.91;29.44
12868;BME280;33517;49.866;8.320;2022-09-09T11:17:28;100005.94;;;33.40;30.59
12868;BME280;33517;49.866;8.320;2022-09-09T11:20:25;100012.91;;;31.04;34.12
12868;BME280;33517;49.866;8.320;2022-09-09T11:23:22;100005.41;;;31.62;33.27
12868;BME280;33517;49.866;8.320;2022-09-09T11:26:28;99992.75;;;31.27;33.99
12868;BME280;33517;49.866;8.320;2022-09-09T11:33:16;99983.47;;;27.72;38.54
12868;BME280;33517;49.866;8.320;2022-09-09T11:39:53;99991.84;;;27.47;40.09
12868;BME280;33517;49.866;8.320;2022-09-09T11:43:01;99991.34;;;26.33;41.45
12868;BME280;33517;49.866;8.320;2022-09-09T11:45:57;99988.13;;;25.37;42.93
12868;BME280;33517;49.866;8.320;2022-09-09T11:48:58;99986.22;;;25.38;43.02
12868;BME280;33517;49.866;8.320;2022-09-09T11:51:51;99981.94;;;25.42;43.68
12868;BME280;33517;49.866;8.320;2022-09-09T11:54:47;99983.75;;;28.17;38.87
12868;BME280;33517;49.866;8.320;2022-09-09T11:57:39;99977.84;;;27.11;40.27
12868;BME280;33517;49.866;8.320;2022-09-09T12:00:35;100007.06;;;26.65;40.52
12868;BME280;33517;49.866;8.320;2022-09-09T12:03:36;100010.19;;;25.70;41.36
12868;BME280;33517;49.866;8.320;2022-09-09T12:06:33;100006.88;;;24.52;43.11
12868;BME280;33517;49.866;8.320;2022-09-09T12:09:45;100010.31;;;24.22;43.41
12868;BME280;33517;49.866;8.320;2022-09-09T12:12:39;100007.28;;;23.62;44.29
12868;BME280;33517;49.866;8.320;2022-09-09T12:15:32;100011.81;;;23.56;45.05
12868;BME280;33517;49.866;8.320;2022-09-09T12:18:31;100009.88;;;23.47;45.12
12868;BME280;33517;49.866;8.320;2022-09-09T12:21:33;100002.41;;;23.17;46.04
12868;BME280;33517;49.866;8.320;2022-09-09T12:24:33;99992.19;;;22.82;47.91
12868;BME280;33517;49.866;8.320;2022-09-09T12:27:34;100006.75;;;22.43;47.00
12868;BME280;33517;49.866;8.320;2022-09-09T12:30:30;100025.38;;;21.85;48.32
12868;BME280;33517;49.866;8.320;2022-09-09T12:33:33;100035.72;;;21.10;52.32
12868;BME280;33517;49.866;8.320;2022-09-09T12:36:29;100034.66;;;20.66;55.30
12868;BME280;33517;49.866;8.320;2022-09-09T12:39:29;100035.13;;;20.12;58.43
12868;BME280;33517;49.866;8.320;2022-09-09T12:42:24;100025.81;;;19.63;62.13
12868;BME280;33517;49.866;8.320;2022-09-09T12:45:18;100016.41;;;19.38;62.90
12868;BME280;33517;49.866;8.320;2022-09-09T12:48:11;100014.56;;;19.38;62.80
12868;BME280;33517;49.866;8.320;2022-09-09T12:51:17;100017.03;;;19.21;64.31
12868;BME280;33517;49.866;8.320;2022-09-09T12:54:13;100015.69;;;19.19;66.68
12868;BME280;33517;49.866;8.320;2022-09-09T12:57:11;100009.41;;;19.25;65.99
12868;BME280;33517;49.866;8.320;2022-09-09T13:00:11;100001.66;;;19.58;65.23
12868;BME280;33517;49.866;8.320;2022-09-09T13:03:16;99995.72;;;19.68;65.04
12868;BME280;33517;49.866;8.320;2022-09-09T13:06:19;99992.34;;;19.84;64.45
12868;BME280;33517;49.866;8.320;2022-09-09T13:09:13;99991.69;;;19.77;64.66
12868;BME280;33517;49.866;8.320;2022-09-09T13:12:06;99989.78;;;19.89;64.52
12868;BME280;33517;49.866;8.320;2022-09-09T13:15:04;99996.47;;;20.14;64.65
12868;BME280;33517;49.866;8.320;2022-09-09T13:18:07;99990.63;;;21.73;61.14
12868;BME280;33517;49.866;8.320;2022-09-09T13:21:03;99982.97;;;24.65;53.45
12868;BME280;33517;49.866;8.320;2022-09-09T13:23:56;99989.09;;;26.45;48.12
12868;BME280;33517;49.866;8.320;2022-09-09T13:26:54;99978.28;;;27.52;45.58
12868;BME280;33517;49.866;8.320;2022-09-09T13:29:51;99986.53;;;27.08;44.64
12868;BME280;33517;49.866;8.320;2022-09-09T13:32:44;99985.25;;;26.08;46.91
12868;BME280;33517;49.866;8.320;2022-09-09T13:35:46;99991.31;;;25.65;48.06
12868;BME280;33517;49.866;8.320;2022-09-09T13:38:53;99992.09;;;24.59;49.31
12868;BME280;33517;49.866;8.320;2022-09-09T13:41:47;99983.09;;;23.20;52.05
12868;BME280;33517;49.866;8.320;2022-09-09T13:44:40;99987.66;;;22.88;52.82
12868;BME280;33517;49.866;8.320;2022-09-09T13:47:34;99995.47;;;22.41;53.62
12868;BME280;33517;49.866;8.320;2022-09-09T13:50:27;99991.50;;;22.44;54.20
12868;BME280;33517;49.866;8.320;2022-09-09T13:53:19;99990.59;;;22.33;54.47
12868;BME280;33517;49.866;8.320;2022-09-09T13:56:11;99982.81;;;22.58;54.29
12868;BME280;33517;49.866;8.320;2022-09-09T13:59:09;99990.25;;;22.78;54.28
12868;BME280;33517;49.866;8.320;2022-09-09T14:02:02;99995.63;;;23.10;53.75
12868;BME280;33517;49.866;8.320;2022-09-09T14:04:54;99993.22;;;22.81;53.01
12868;BME280;33517;49.866;8.320;2022-09-09T14:07:46;99987.38;;;22.58;53.96
12868;BME280;33517;49.866;8.320;2022-09-09T14:10:38;99990.09;;;22.63;54.79
12868;BME280;33517;49.866;8.320;2022-09-09T14:13:30;99993.06;;;22.18;55.51
12868;BME280;33517;49.866;8.320;2022-09-09T14:16:23;100006.28;;;22.03;56.63
12868;BME280;33517;49.866;8.320;2022-09-09T14:19:18;99999.06;;;21.82;56.80
12868;BME280;33517;49.866;8.320;2022-09-09T14:22:10;99998.34;;;21.70;56.53
12868;BME280;33517;49.866;8.320;2022-09-09T14:25:03;100006.66;;;21.52;57.90
12868;BME280;33517;49.866;8.320;2022-09-09T14:27:55;100009.31;;;21.52;58.36
12868;BME280;33517;49.866;8.320;2022-09-09T14:30:47;100005.19;;;21.44;58.79
12868;BME280;33517;49.866;8.320;2022-09-09T14:33:41;100006.41;;;21.53;58.88
12868;BME280;33517;49.866;8.320;2022-09-09T14:36:33;100004.06;;;21.40;59.32
12868;BME280;33517;49.866;8.320;2022-09-09T14:39:25;99998.97;;;21.39;59.19
12868;BME280;33517;49.866;8.320;2022-09-09T14:42:17;99994.84;;;21.31;59.26
12868;BME280;33517;49.866;8.320;2022-09-09T14:45:10;99993.78;;;21.16;61.08
12868;BME280;33517;49.866;8.320;2022-09-09T14:48:03;99988.69;;;21.14;62.30
12868;BME280;33517;49.866;8.320;2022-09-09T14:50:56;99988.69;;;21.14;62.94
12868;BME280;33517;49.866;8.320;2022-09-09T14:53:51;99979.66;;;21.03;63.29
12868;BME280;33517;49.866;8.320;2022-09-09T14:56:43;99980.47;;;21.21;63.90
12868;BME280;33517;49.866;8.320;2022-09-09T14:59:35;99972.94;;;21.18;64.48
12868;BME280;33517;49.866;8.320;2022-09-09T15:02:27;99971.72;;;21.25;64.33
12868;BME280;33517;49.866;8.320;2022-09-09T15:05:21;99971.94;;;21.40;63.34
12868;BME280;33517;49.866;8.320;2022-09-09T15:08:15;99972.03;;;21.45;62.99
12868;BME280;33517;49.866;8.320;2022-09-09T15:11:07;99963.22;;;21.28;62.43
12868;BME280;33517;49.866;8.320;2022-09-09T15:13:59;99962.47;;;21.33;62.54
12868;BME280;33517;49.866;8.320;2022-09-09T15:16:51;99962.09;;;21.24;62.29
12868;BME280;33517;49.866;8.320;2022-09-09T15:19:43;99957.44;;;21.20;62.18
12868;BME280;33517;49.866;8.320;2022-09-09T15:22:35;99971.16;;;21.06;61.99
12868;BME280;33517;49.866;8.320;2022-09-09T15:25:29;99968.88;;;20.82;62.60
12868;BME280;33517;49.866;8.320;2022-09-09T15:28:22;99973.41;;;20.98;62.85
12868;BME280;33517;49.866;8.320;2022-09-09T15:31:15;99990.06;;;21.17;63.06
12868;BME280;33517;49.866;8.320;2022-09-09T15:34:08;99992.00;;;21.38;62.42